Time;durP1;ratioP1;P1;durP2;ratioP2;P2;SDS_P1;SDS_P2;PMS_P1;PMS_P2;Temp;Humidity;BMP_temperature;BMP_pressure;BME280_temperature;BME280_humidity;BME280_pressure;Samples;Min_cycle;Max_cycle;Signal;HPM_P1;HPM_P2
2020/12/19 05:00:19;;;;;;;35.80;18.40;;;3.40;99.90;;;;;;5992191;23;20183;31
2020/12/19 05:02:45;;;;;;;32.55;17.42;;;3.30;99.90;;;;;;4932495;29;20233;-66
2020/12/19 05:05:11;;;;;;;30.42;17.33;;;3.30;99.90;;;;;;4934024;29;20309;-66
2020/12/19 05:07:38;;;;;;;33.47;17.80;;;3.30;99.90;;;;;;4935307;29;20238;-66
2020/12/19 05:10:04;;;;;;;32.88;18.42;;;3.30;99.90;;;;;;4935472;29;20206;-66
2020/12/19 05:12:31;;;;;;;33.42;18.10;;;3.30;99.90;;;;;;4935096;29;20225;-66
2020/12/19 05:14:57;;;;;;;41.15;17.88;;;3.30;99.90;;;;;;4933418;28;20351;-66
2020/12/19 05:17:25;;;;;;;30.92;17.65;;;3.30;99.90;;;;;;4935506;29;20261;-66
2020/12/19 05:19:53;;;;;;;37.92;19.20;;;3.30;99.90;;;;;;4935377;29;20202;-66
2020/12/19 05:22:19;;;;;;;26.95;17.15;;;3.40;99.90;;;;;;4935667;29;20253;-66
2020/12/19 05:24:46;;;;;;;33.80;18.27;;;3.30;99.90;;;;;;4933274;29;20249;-66
2020/12/19 05:27:13;;;;;;;30.88;17.65;;;3.40;99.90;;;;;;4934342;29;20226;-66
2020/12/19 05:29:39;;;;;;;30.95;17.48;;;3.40;99.90;;;;;;4933477;29;20214;-66
2020/12/19 05:32:05;;;;;;;31.42;15.25;;;3.40;99.90;;;;;;4934658;28;20237;-66
2020/12/19 05:34:32;;;;;;;33.88;16.95;;;3.30;99.90;;;;;;4934257;28;20253;-66
2020/12/19 05:36:58;;;;;;;29.35;17.73;;;3.30;99.90;;;;;;4934903;29;20205;-67
2020/12/19 05:39:25;;;;;;;37.42;18.98;;;3.30;99.90;;;;;;4934360;29;20210;-66
2020/12/19 05:41:52;;;;;;;33.72;18.23;;;3.30;99.90;;;;;;4934020;28;20288;-66
2020/12/19 05:44:19;;;;;;;31.48;18.50;;;3.30;99.90;;;;;;4934630;29;20217;-66
2020/12/19 05:46:46;;;;;;;40.63;19.33;;;3.30;99.90;;;;;;4934644;29;20259;-67
2020/12/19 05:49:13;;;;;;;31.33;18.40;;;3.30;99.90;;;;;;4937795;29;20210;-67
2020/12/19 05:51:42;;;;;;;39.60;19.35;;;3.30;99.90;;;;;;4953033;29;20225;-67
2020/12/19 05:54:09;;;;;;;34.40;17.63;;;3.30;99.90;;;;;;4925806;28;20209;-67
2020/12/19 05:56:38;;;;;;;31.05;17.70;;;3.30;99.90;;;;;;4941877;29;20198;-67
2020/12/19 05:59:04;;;;;;;34.35;18.23;;;3.30;99.90;;;;;;4942676;29;20198;-66
2020/12/19 06:01:31;;;;;;;35.03;17.42;;;3.30;99.90;;;;;;4940850;29;20233;-66
2020/12/19 06:04:02;;;;;;;38.08;18.15;;;3.30;99.90;;;;;;4932191;28;20301;-67
2020/12/19 06:06:31;;;;;;;26.83;15.90;;;3.30;99.90;;;;;;4944173;29;20230;-66
2020/12/19 06:08:59;;;;;;;32.83;16.10;;;3.30;99.90;;;;;;4944968;29;20288;-68
2020/12/19 06:11:28;;;;;;;36.25;17.17;;;3.30;99.90;;;;;;4944110;29;20234;-66
2020/12/19 06:13:57;;;;;;;27.90;16.33;;;3.30;99.90;;;;;;4943808;29;20210;-66
2020/12/19 06:16:24;;;;;;;41.20;17.90;;;3.30;99.90;;;;;;4937836;29;20206;-66
2020/12/19 06:19:03;;;;;;;33.65;18.80;;;3.30;99.90;;;;;;4942535;28;20581;-66
2020/12/19 06:21:31;;;;;;;34.50;17.35;;;3.20;99.90;;;;;;4951843;28;20530;-66
2020/12/19 06:23:58;;;;;;;28.70;16.25;;;3.20;99.90;;;;;;4935352;29;20206;-66
2020/12/19 06:26:35;;;;;;;33.58;18.40;;;3.20;99.90;;;;;;4936787;29;20281;-66
2020/12/19 06:29:01;;;;;;;30.60;17.80;;;3.20;99.90;;;;;;4936290;28;20218;-66
2020/12/19 06:31:27;;;;;;;34.47;17.50;;;3.20;99.90;;;;;;4935884;29;20359;-66
2020/12/19 06:33:55;;;;;;;34.28;19.45;;;3.20;99.90;;;;;;4936195;29;20574;-66
2020/12/19 06:36:23;;;;;;;34.35;17.55;;;3.20;99.90;;;;;;4936496;29;20213;-66
2020/12/19 06:38:51;;;;;;;34.97;19.25;;;3.20;99.90;;;;;;4936921;29;20269;-66
2020/12/19 06:41:42;;;;;;;31.15;17.58;;;3.20;99.90;;;;;;4935869;29;20222;-66
2020/12/19 06:44:10;;;;;;;32.47;18.00;;;3.20;99.90;;;;;;4936106;28;20218;-66
2020/12/19 06:46:36;;;;;;;39.22;18.00;;;3.20;99.90;;;;;;4935597;29;20224;-66
2020/12/19 06:49:25;;;;;;;27.67;18.10;;;3.10;99.90;;;;;;4945629;28;20530;-66
2020/12/19 06:52:05;;;;;;;39.83;19.10;;;3.10;99.90;;;;;;4944958;28;20261;-66
2020/12/19 06:54:33;;;;;;;32.67;17.55;;;3.10;99.90;;;;;;4917190;29;20217;-66
2020/12/19 06:57:01;;;;;;;31.67;18.65;;;3.10;99.90;;;;;;4920687;29;20202;-66
2020/12/19 06:59:28;;;;;;;45.30;20.00;;;3.20;99.90;;;;;;4934721;29;20203;-66
2020/12/19 07:02:16;;;;;;;33.05;18.30;;;3.20;99.90;;;;;;4934545;29;20713;-66
2020/12/19 07:04:43;;;;;;;31.90;18.02;;;3.20;99.90;;;;;;4935401;29;20687;-66
2020/12/19 07:07:10;;;;;;;38.65;19.45;;;3.20;99.90;;;;;;4938822;28;20224;-66
2020/12/19 07:09:37;;;;;;;34.80;18.83;;;3.20;99.90;;;;;;4916458;29;20565;-66
2020/12/19 07:12:04;;;;;;;32.95;19.65;;;3.10;99.90;;;;;;4929925;29;20233;-66
2020/12/19 07:14:41;;;;;;;31.45;18.40;;;3.10;99.90;;;;;;4935935;29;20233;-66
2020/12/19 07:17:18;;;;;;;27.73;17.20;;;3.10;99.90;;;;;;4933346;28;20217;-66
2020/12/19 07:19:45;;;;;;;36.30;19.50;;;3.10;99.90;;;;;;4934645;29;20529;-66
2020/12/19 07:22:11;;;;;;;34.92;21.02;;;3.10;99.90;;;;;;4934200;29;20563;-66
2020/12/19 07:24:37;;;;;;;29.58;18.45;;;3.00;99.90;;;;;;4935415;29;20281;-66
2020/12/19 07:27:04;;;;;;;36.78;17.77;;;3.00;99.90;;;;;;4935674;28;20561;-66
2020/12/19 07:29:30;;;;;;;37.38;19.75;;;3.00;99.90;;;;;;4935208;29;20209;-66
2020/12/19 07:31:59;;;;;;;34.03;18.63;;;3.00;99.90;;;;;;4933775;29;20261;-66
2020/12/19 07:34:26;;;;;;;38.03;19.95;;;3.00;99.90;;;;;;4934673;29;20893;-69
2020/12/19 07:36:53;;;;;;;35.75;19.55;;;3.00;99.90;;;;;;4935187;29;20203;-66
2020/12/19 07:39:21;;;;;;;40.92;20.70;;;3.00;99.90;;;;;;4930958;29;20210;-65
2020/12/19 07:42:00;;;;;;;30.45;18.17;;;3.00;99.90;;;;;;4933942;28;20225;-65
2020/12/19 07:44:28;;;;;;;32.90;19.80;;;3.00;99.90;;;;;;4935372;29;20235;-66
2020/12/19 07:46:57;;;;;;;40.67;21.13;;;3.00;99.90;;;;;;4945273;29;20218;-66
2020/12/19 07:49:42;;;;;;;45.17;20.65;;;3.00;99.90;;;;;;4935636;29;20643;-67
2020/12/19 07:52:15;;;;;;;42.20;20.60;;;3.20;99.90;;;;;;4934554;28;20706;-66
2020/12/19 07:54:42;;;;;;;39.17;20.63;;;3.20;99.90;;;;;;4948709;29;20289;-65
2020/12/19 07:57:10;;;;;;;33.97;19.48;;;3.20;99.90;;;;;;4945091;28;20261;-66
2020/12/19 07:59:40;;;;;;;39.20;19.98;;;3.20;99.90;;;;;;4935068;29;20205;-66
2020/12/19 08:02:07;;;;;;;35.40;20.88;;;3.20;99.90;;;;;;4933679;29;20249;-66
2020/12/19 08:04:33;;;;;;;36.65;21.33;;;3.20;99.90;;;;;;4934839;29;20539;-67
2020/12/19 08:07:00;;;;;;;37.35;21.38;;;3.20;99.90;;;;;;4934935;29;20238;-67
2020/12/19 08:09:26;;;;;;;38.53;20.60;;;3.20;99.90;;;;;;4934149;29;20646;-67
2020/12/19 08:11:59;;;;;;;34.85;19.45;;;3.20;99.90;;;;;;4933499;29;20683;-67
2020/12/19 08:14:26;;;;;;;40.75;20.92;;;3.20;99.90;;;;;;4934975;29;20300;-66
2020/12/19 08:16:54;;;;;;;36.80;20.40;;;3.20;99.90;;;;;;4934546;28;20210;-67
2020/12/19 08:19:28;;;;;;;41.05;20.83;;;3.30;99.90;;;;;;4933527;29;20206;-67
2020/12/19 08:22:00;;;;;;;36.95;21.38;;;3.40;99.90;;;;;;4935329;29;20222;-67
2020/12/19 08:24:27;;;;;;;37.58;20.55;;;3.40;99.90;;;;;;4947016;28;20234;-67
2020/12/19 08:27:43;;;;;;;31.77;19.67;;;3.40;99.90;;;;;;4932839;29;20552;-67
2020/12/19 08:30:15;;;;;;;39.22;21.67;;;3.30;99.90;;;;;;4890055;28;20657;-67
2020/12/19 08:32:44;;;;;;;41.90;22.52;;;3.30;99.90;;;;;;4933436;29;20212;-67
2020/12/19 08:35:16;;;;;;;40.72;20.05;;;3.30;99.90;;;;;;4933288;29;20213;-67
2020/12/19 08:37:43;;;;;;;39.13;21.73;;;3.30;99.90;;;;;;4934644;29;20618;-67
2020/12/19 08:40:11;;;;;;;39.70;22.48;;;3.30;99.90;;;;;;4930497;29;20206;-67
2020/12/19 08:42:39;;;;;;;43.85;21.50;;;3.30;99.90;;;;;;4934190;29;20210;-67
2020/12/19 08:45:16;;;;;;;41.53;22.20;;;3.40;99.90;;;;;;4934340;29;20216;-67
2020/12/19 08:47:43;;;;;;;37.60;22.30;;;3.40;99.90;;;;;;4923740;29;20308;-67
2020/12/19 08:50:10;;;;;;;39.63;21.63;;;3.40;99.90;;;;;;4933337;28;20205;-67
2020/12/19 08:52:36;;;;;;;41.90;22.90;;;3.40;99.90;;;;;;4933486;29;20214;-67
2020/12/19 08:55:03;;;;;;;41.55;23.77;;;3.40;99.90;;;;;;4934729;29;20553;-67
2020/12/19 08:57:31;;;;;;;41.67;21.05;;;3.60;99.90;;;;;;4934203;29;20670;-67
2020/12/19 09:00:09;;;;;;;41.65;23.58;;;3.60;99.90;;;;;;4933220;29;20316;-67
2020/12/19 09:02:38;;;;;;;41.40;21.67;;;3.60;99.90;;;;;;4931236;28;20217;-67
2020/12/19 09:05:05;;;;;;;34.58;20.65;;;3.60;99.90;;;;;;4933669;29;20236;-67
2020/12/19 09:07:31;;;;;;;38.83;22.85;;;3.60;99.90;;;;;;4933588;29;20222;-67
2020/12/19 09:09:57;;;;;;;32.67;20.73;;;3.60;99.90;;;;;;4933595;29;20570;-67
2020/12/19 09:12:23;;;;;;;33.90;20.70;;;3.70;99.90;;;;;;4935046;29;20592;-66
2020/12/19 09:14:50;;;;;;;33.53;20.73;;;3.70;99.90;;;;;;4943393;28;20216;-67
2020/12/19 09:17:27;;;;;;;41.25;22.40;;;3.70;99.90;;;;;;4944443;28;20228;-67
2020/12/19 09:20:00;;;;;;;36.00;21.27;;;3.70;99.90;;;;;;4933434;29;20206;-67
2020/12/19 09:22:27;;;;;;;40.40;21.98;;;3.70;99.90;;;;;;4934134;29;20567;-67
2020/12/19 09:24:53;;;;;;;29.50;20.65;;;3.80;99.90;;;;;;4935075;29;20269;-67
2020/12/19 09:27:19;;;;;;;101.15;47.63;;;3.80;99.90;;;;;;4939978;28;20651;-65
2020/12/19 09:29:45;;;;;;;40.53;25.05;;;3.80;99.90;;;;;;4949247;28;20202;-66
2020/12/19 09:32:12;;;;;;;38.88;24.63;;;3.90;99.90;;;;;;4937036;29;20226;-66
2020/12/19 09:34:38;;;;;;;52.70;30.77;;;3.90;99.90;;;;;;4943345;29;20624;-67
2020/12/19 09:37:04;;;;;;;42.72;24.27;;;4.00;99.90;;;;;;4936774;29;20574;-67
2020/12/19 09:39:31;;;;;;;36.40;23.05;;;4.00;99.90;;;;;;4937756;29;20682;-67
2020/12/19 09:41:57;;;;;;;38.42;22.77;;;4.00;99.90;;;;;;4936850;29;21109;-67
2020/12/19 09:44:23;;;;;;;68.20;40.28;;;4.10;99.90;;;;;;4948883;28;20221;-67
2020/12/19 09:46:49;;;;;;;48.00;26.08;;;4.10;99.90;;;;;;4945529;28;20249;-67
2020/12/19 09:49:15;;;;;;;62.00;33.72;;;4.10;99.90;;;;;;4935976;29;20655;-67
2020/12/19 09:51:41;;;;;;;39.25;24.38;;;4.10;99.90;;;;;;4948394;29;20251;-67
2020/12/19 09:54:08;;;;;;;36.53;22.27;;;4.20;99.90;;;;;;4938124;28;20312;-66
2020/12/19 09:56:37;;;;;;;32.95;21.35;;;4.20;99.90;;;;;;4936759;29;20194;-66
2020/12/19 09:59:03;;;;;;;31.75;20.77;;;4.30;99.90;;;;;;4936970;29;20202;-66
2020/12/19 10:01:30;;;;;;;36.85;22.27;;;4.30;99.90;;;;;;4936310;29;20300;-66
2020/12/19 10:03:56;;;;;;;39.03;21.23;;;4.30;99.90;;;;;;4944300;29;20212;-66
2020/12/19 10:06:22;;;;;;;31.30;19.80;;;4.40;99.90;;;;;;4939452;28;20217;-66
2020/12/19 10:08:48;;;;;;;36.72;22.35;;;4.40;99.90;;;;;;4950627;28;20213;-66
2020/12/19 10:11:14;;;;;;;31.10;19.30;;;4.50;99.90;;;;;;4941956;28;20226;-66
2020/12/19 10:13:41;;;;;;;25.38;18.33;;;4.60;99.90;;;;;;4936755;29;20202;-67
2020/12/19 10:16:07;;;;;;;27.33;17.48;;;4.60;99.90;;;;;;4935426;29;20201;-67
2020/12/19 10:18:33;;;;;;;25.95;18.15;;;4.60;99.90;;;;;;4936961;28;20221;-67
2020/12/19 10:20:59;;;;;;;35.05;21.80;;;4.70;99.90;;;;;;4935249;29;20233;-66
2020/12/19 10:23:29;;;;;;;31.50;19.10;;;4.70;99.90;;;;;;4936434;29;20635;-66
2020/12/19 10:25:55;;;;;;;24.77;17.80;;;4.80;99.90;;;;;;4935658;29;20206;-66
2020/12/19 10:28:21;;;;;;;28.15;18.88;;;4.80;99.90;;;;;;4936697;29;20650;-66
2020/12/19 10:30:48;;;;;;;25.83;16.60;;;4.90;99.90;;;;;;4935547;29;20237;-66
2020/12/19 10:33:14;;;;;;;25.13;17.08;;;4.90;99.90;;;;;;4938018;29;20206;-66
2020/12/19 10:35:40;;;;;;;20.75;15.77;;;5.00;99.90;;;;;;4942344;28;20214;-66
2020/12/19 10:38:06;;;;;;;23.42;17.70;;;5.00;99.90;;;;;;4951465;28;20267;-66
2020/12/19 10:40:32;;;;;;;22.08;15.63;;;5.10;99.90;;;;;;4955365;29;20658;-66
2020/12/19 10:42:58;;;;;;;25.00;16.08;;;5.10;99.90;;;;;;4939828;28;20289;-66
2020/12/19 10:45:25;;;;;;;23.10;14.70;;;5.20;99.90;;;;;;4944037;28;20514;-66
2020/12/19 10:47:51;;;;;;;21.70;14.25;;;5.20;99.90;;;;;;4954972;28;20235;-66
2020/12/19 10:50:19;;;;;;;19.08;14.77;;;5.40;99.90;;;;;;4938192;28;20217;-66
2020/12/19 10:52:45;;;;;;;19.05;13.45;;;5.40;99.90;;;;;;4935736;28;20217;-66
2020/12/19 10:55:11;;;;;;;21.27;14.77;;;5.50;99.90;;;;;;4935796;29;20212;-67
2020/12/19 10:57:37;;;;;;;19.17;15.93;;;5.60;99.90;;;;;;4936094;29;20693;-67
2020/12/19 11:00:04;;;;;;;18.88;14.52;;;5.70;99.90;;;;;;4935496;29;20198;-67
2020/12/19 11:02:31;;;;;;;17.70;12.77;;;5.70;99.90;;;;;;4934094;29;20234;-67
2020/12/19 11:04:58;;;;;;;16.77;13.10;;;5.80;99.90;;;;;;4948192;28;20296;-67
2020/12/19 11:07:24;;;;;;;17.23;12.18;;;5.80;99.90;;;;;;4935681;29;20229;-67
2020/12/19 11:09:50;;;;;;;26.55;18.20;;;5.90;99.90;;;;;;4934781;29;20205;-67
2020/12/19 11:12:16;;;;;;;17.02;12.68;;;6.00;99.90;;;;;;4935700;29;20238;-67
2020/12/19 11:14:42;;;;;;;16.42;13.05;;;6.00;99.90;;;;;;4946700;28;20224;-67
2020/12/19 11:17:08;;;;;;;16.40;11.75;;;6.10;99.90;;;;;;4953890;28;20208;-67
2020/12/19 11:19:34;;;;;;;16.35;12.05;;;6.10;99.90;;;;;;4938539;28;20670;-67
2020/12/19 11:22:01;;;;;;;18.92;14.02;;;6.20;99.90;;;;;;4935591;29;20226;-67
2020/12/19 11:24:27;;;;;;;15.40;12.07;;;6.30;99.90;;;;;;4935778;29;20257;-67
2020/12/19 11:26:53;;;;;;;13.55;11.98;;;6.40;99.90;;;;;;4935590;29;20225;-67
2020/12/19 11:29:19;;;;;;;16.50;12.13;;;6.40;99.90;;;;;;4935096;28;20225;-67
2020/12/19 11:31:48;;;;;;;16.27;12.25;;;6.50;99.90;;;;;;4934817;29;20630;-66
2020/12/19 11:34:14;;;;;;;18.52;12.32;;;6.60;99.90;;;;;;4941857;29;20299;-66
2020/12/19 11:36:40;;;;;;;17.83;13.02;;;6.60;99.90;;;;;;4954502;28;20205;-67
2020/12/19 11:39:08;;;;;;;14.95;10.85;;;6.60;99.90;;;;;;4940248;28;20236;-66
2020/12/19 11:41:35;;;;;;;18.85;12.18;;;6.70;99.90;;;;;;4935160;29;20234;-66
2020/12/19 11:44:01;;;;;;;15.60;10.70;;;6.70;99.90;;;;;;4951442;28;20210;-66
2020/12/19 11:46:27;;;;;;;15.77;11.95;;;6.80;99.90;;;;;;4952898;28;20229;-67
2020/12/19 11:48:53;;;;;;;19.00;13.70;;;6.80;99.90;;;;;;4941031;28;20224;-66
2020/12/19 11:51:26;;;;;;;18.02;12.60;;;6.90;99.90;;;;;;4934691;29;20241;-67
2020/12/19 11:53:52;;;;;;;20.73;13.43;;;6.90;99.90;;;;;;4935488;29;20564;-66
2020/12/19 11:56:19;;;;;;;15.65;12.15;;;6.90;99.90;;;;;;4934670;29;20551;-67
2020/12/19 11:58:45;;;;;;;12.20;10.90;;;7.00;99.90;;;;;;4934601;29;20206;-66
2020/12/19 12:01:11;;;;;;;15.95;12.52;;;7.00;99.90;;;;;;4934203;29;20244;-67
2020/12/19 12:03:37;;;;;;;35.90;21.70;;;7.10;99.90;;;;;;4937077;28;20674;-67
2020/12/19 12:06:03;;;;;;;70.55;31.63;;;7.10;99.90;;;;;;4934483;29;20209;-67
2020/12/19 12:08:30;;;;;;;28.70;16.80;;;7.20;99.90;;;;;;4934658;29;20301;-67
2020/12/19 12:10:56;;;;;;;21.73;14.20;;;7.20;99.90;;;;;;4934775;29;20229;-67
2020/12/19 12:13:23;;;;;;;19.40;14.38;;;7.30;99.90;;;;;;4934693;29;20206;-67
2020/12/19 12:15:49;;;;;;;17.67;12.02;;;7.30;99.90;;;;;;4934239;28;20580;-67
2020/12/19 12:18:15;;;;;;;17.23;10.95;;;7.30;99.90;;;;;;4934836;29;20209;-67
2020/12/19 12:20:41;;;;;;;19.38;12.35;;;7.40;99.90;;;;;;4934314;29;20229;-67
2020/12/19 12:23:07;;;;;;;18.20;12.77;;;7.40;99.90;;;;;;4934902;29;20305;-67
2020/12/19 12:25:34;;;;;;;20.65;13.32;;;7.50;99.90;;;;;;4934902;29;20214;-67
2020/12/19 12:28:00;;;;;;;24.30;15.98;;;7.50;99.90;;;;;;4934473;28;20297;-67
2020/12/19 12:30:27;;;;;;;17.83;13.85;;;7.60;99.90;;;;;;4934770;29;20205;-67
2020/12/19 12:32:53;;;;;;;17.15;10.65;;;7.60;99.90;;;;;;4934402;29;20741;-67
2020/12/19 12:35:19;;;;;;;17.15;14.07;;;7.70;99.90;;;;;;4934242;29;20210;-67
2020/12/19 12:37:46;;;;;;;22.63;15.73;;;7.80;99.90;;;;;;4934164;28;20497;-67
2020/12/19 12:40:13;;;;;;;16.75;12.32;;;7.80;99.90;;;;;;4934767;29;20210;-67
2020/12/19 12:42:39;;;;;;;18.73;14.68;;;7.90;99.90;;;;;;4934335;29;20209;-66
2020/12/19 12:45:05;;;;;;;22.92;15.68;;;8.00;99.90;;;;;;4934625;29;20221;-67
2020/12/19 12:47:32;;;;;;;25.88;19.27;;;8.10;99.90;;;;;;4933409;29;20261;-67
2020/12/19 12:49:58;;;;;;;19.60;13.50;;;8.10;99.90;;;;;;4934044;29;20218;-67
2020/12/19 12:52:24;;;;;;;19.35;14.27;;;8.20;99.90;;;;;;4951025;28;20720;-67
2020/12/19 12:54:50;;;;;;;17.17;11.85;;;8.20;99.90;;;;;;4952740;28;20201;-67
2020/12/19 12:57:17;;;;;;;10.98;9.98;;;8.20;99.90;;;;;;4946705;28;20216;-66
2020/12/19 12:59:43;;;;;;;11.30;9.48;;;8.20;99.90;;;;;;4938159;29;20552;-68
2020/12/19 13:02:09;;;;;;;11.13;10.02;;;8.20;99.90;;;;;;4938183;29;20230;-67
2020/12/19 13:04:36;;;;;;;13.30;10.25;;;8.20;99.90;;;;;;4938064;29;20686;-68
2020/12/19 13:07:03;;;;;;;12.73;9.80;;;8.20;99.90;;;;;;4937763;28;20236;-68
2020/12/19 13:09:29;;;;;;;12.73;10.70;;;8.20;99.90;;;;;;4937989;29;20217;-68
2020/12/19 13:11:55;;;;;;;13.82;10.35;;;8.30;99.90;;;;;;4937534;29;20225;-68
2020/12/19 13:14:22;;;;;;;13.57;9.82;;;8.40;99.90;;;;;;4934516;29;20209;-68
2020/12/19 13:16:48;;;;;;;16.02;13.20;;;8.40;99.90;;;;;;4936985;29;20697;-68
2020/12/19 13:19:14;;;;;;;14.65;11.38;;;8.40;99.90;;;;;;4933188;28;20217;-68
2020/12/19 13:21:45;;;;;;;15.82;12.15;;;8.40;99.90;;;;;;4937078;29;20237;-68
2020/12/19 13:24:11;;;;;;;13.00;9.23;;;8.40;99.90;;;;;;4937280;29;20572;-68
2020/12/19 13:26:37;;;;;;;15.48;12.55;;;8.40;99.90;;;;;;4936246;29;20214;-69
2020/12/19 13:29:03;;;;;;;9.57;8.57;;;8.40;99.90;;;;;;4947505;28;20268;-68
2020/12/19 13:31:30;;;;;;;15.68;13.40;;;8.40;99.90;;;;;;4939726;28;20221;-68
2020/12/19 13:33:56;;;;;;;10.13;8.43;;;8.40;99.90;;;;;;4957445;28;20428;-68
2020/12/19 13:36:22;;;;;;;11.50;10.32;;;8.40;99.90;;;;;;4940177;28;20209;-68
2020/12/19 13:38:49;;;;;;;13.98;10.40;;;8.50;99.90;;;;;;4937971;29;20228;-68
2020/12/19 13:41:17;;;;;;;10.35;9.25;;;8.50;99.90;;;;;;4937248;29;20252;-68
2020/12/19 13:43:43;;;;;;;14.98;11.00;;;8.50;99.90;;;;;;4937477;29;20388;-67
2020/12/19 13:46:10;;;;;;;9.10;8.15;;;8.50;99.90;;;;;;4935839;29;20213;-67
2020/12/19 13:48:36;;;;;;;17.67;12.50;;;8.60;99.90;;;;;;4937787;28;20206;-66
2020/12/19 13:51:02;;;;;;;15.27;9.88;;;8.60;99.90;;;;;;4936793;29;20222;-67
2020/12/19 13:53:28;;;;;;;14.52;11.68;;;8.60;99.90;;;;;;4937278;29;20686;-66
2020/12/19 13:55:55;;;;;;;24.90;17.88;;;8.60;99.90;;;;;;4936010;29;20655;-67
2020/12/19 13:58:22;;;;;;;31.35;18.60;;;8.60;99.90;;;;;;4938606;28;20206;-67
2020/12/19 14:00:48;;;;;;;29.10;15.32;;;8.60;99.90;;;;;;4936407;29;20745;-67
2020/12/19 14:03:14;;;;;;;13.35;10.27;;;8.60;99.90;;;;;;4937404;29;20273;-67
2020/12/19 14:05:40;;;;;;;16.25;11.77;;;8.60;99.90;;;;;;4936131;29;20253;-66
2020/12/19 14:08:06;;;;;;;17.00;13.75;;;8.50;99.90;;;;;;4939031;28;20721;-66
2020/12/19 14:10:32;;;;;;;9.65;8.70;;;8.50;99.90;;;;;;4939995;29;20230;-67
2020/12/19 14:12:59;;;;;;;10.77;8.80;;;8.40;99.90;;;;;;4937216;29;20206;-67
2020/12/19 14:15:25;;;;;;;9.30;8.30;;;8.40;99.90;;;;;;4936879;29;20205;-66
2020/12/19 14:17:51;;;;;;;10.07;8.90;;;8.40;99.90;;;;;;4936954;29;20683;-67
2020/12/19 14:20:17;;;;;;;9.52;8.60;;;8.30;99.90;;;;;;4946451;28;20233;-67
2020/12/19 14:22:44;;;;;;;9.25;8.35;;;8.30;99.90;;;;;;4936993;29;20547;-68
2020/12/19 14:25:10;;;;;;;7.55;6.88;;;8.30;99.90;;;;;;4935293;29;20237;-67
2020/12/19 14:27:36;;;;;;;9.50;8.50;;;8.30;99.90;;;;;;4940920;29;20377;-67
2020/12/19 14:30:05;;;;;;;10.70;8.63;;;8.30;99.90;;;;;;4937126;29;20206;-67
2020/12/19 14:32:31;;;;;;;13.00;8.38;;;8.20;99.90;;;;;;4936113;29;20230;-67
2020/12/19 14:34:57;;;;;;;9.52;8.68;;;8.20;99.90;;;;;;4935635;29;20206;-67
2020/12/19 14:37:31;;;;;;;9.65;8.40;;;8.20;99.90;;;;;;4936232;28;20217;-67
2020/12/19 14:39:57;;;;;;;10.80;9.60;;;8.20;99.90;;;;;;4936327;29;20289;-67
2020/12/19 14:42:23;;;;;;;10.05;9.02;;;8.10;99.90;;;;;;4936683;29;20226;-66
2020/12/19 14:44:49;;;;;;;8.23;7.45;;;8.10;99.90;;;;;;4935931;29;20706;-66
2020/12/19 14:47:16;;;;;;;10.80;8.85;;;8.00;99.90;;;;;;4936249;28;20276;-66
2020/12/19 14:49:43;;;;;;;36.10;23.92;;;8.00;99.90;;;;;;4936382;29;20206;-66
2020/12/19 14:52:09;;;;;;;11.25;10.15;;;7.90;99.90;;;;;;4936856;29;20230;-66
2020/12/19 14:54:35;;;;;;;10.73;9.57;;;7.90;99.90;;;;;;4935932;29;20634;-66
2020/12/19 14:57:01;;;;;;;12.02;8.85;;;7.90;99.90;;;;;;4937508;29;20206;-65
2020/12/19 14:59:27;;;;;;;9.32;8.40;;;7.90;99.90;;;;;;4937556;29;20210;-66
2020/12/19 15:01:54;;;;;;;10.45;9.45;;;7.80;99.90;;;;;;4936308;29;20244;-66
2020/12/19 15:04:21;;;;;;;10.05;9.10;;;7.80;99.90;;;;;;4935841;28;20280;-66
2020/12/19 15:06:48;;;;;;;9.45;8.65;;;7.70;99.90;;;;;;4935971;29;20706;-66
2020/12/19 15:09:14;;;;;;;10.05;9.05;;;7.70;99.90;;;;;;4936128;29;20257;-67
2020/12/19 15:11:40;;;;;;;11.20;10.02;;;7.60;99.90;;;;;;4935987;29;20327;-67
2020/12/19 15:14:06;;;;;;;12.65;10.00;;;7.50;99.90;;;;;;4935786;29;20624;-66
2020/12/19 15:16:32;;;;;;;11.93;10.73;;;7.50;99.90;;;;;;4935815;29;20206;-66
2020/12/19 15:18:59;;;;;;;10.63;9.52;;;7.50;99.90;;;;;;4935985;28;20210;-66
2020/12/19 15:21:26;;;;;;;10.77;9.68;;;7.50;99.90;;;;;;4935578;29;20229;-66
2020/12/19 15:23:52;;;;;;;13.20;10.60;;;7.50;99.90;;;;;;4936327;29;20580;-67
2020/12/19 15:26:18;;;;;;;12.05;10.05;;;7.40;99.90;;;;;;4935584;29;20217;-67
2020/12/19 15:28:44;;;;;;;13.57;9.45;;;7.40;99.90;;;;;;4935913;28;20217;-67
2020/12/19 15:31:13;;;;;;;10.65;9.45;;;7.40;99.90;;;;;;4935189;29;20309;-67
2020/12/19 15:33:39;;;;;;;10.68;9.52;;;7.40;99.90;;;;;;4935621;29;20217;-66
2020/12/19 15:36:05;;;;;;;13.20;9.90;;;7.30;99.90;;;;;;4934861;29;20264;-67
2020/12/19 15:38:32;;;;;;;17.50;13.02;;;7.30;99.90;;;;;;4936528;29;20213;-67
2020/12/19 15:40:58;;;;;;;14.07;9.90;;;7.30;99.90;;;;;;4936499;28;20721;-67
2020/12/19 15:43:25;;;;;;;14.48;11.15;;;7.30;99.90;;;;;;4927727;29;20210;-66
2020/12/19 15:45:51;;;;;;;10.05;8.90;;;7.20;99.90;;;;;;4935084;29;20210;-67
2020/12/19 15:48:17;;;;;;;11.15;10.00;;;7.20;99.90;;;;;;4940619;29;20225;-67
2020/12/19 15:50:43;;;;;;;12.10;10.55;;;7.20;99.90;;;;;;4934796;29;20225;-67
2020/12/19 15:53:09;;;;;;;11.90;10.48;;;7.20;99.90;;;;;;4935686;29;20217;-67
2020/12/19 15:55:36;;;;;;;14.30;12.65;;;7.10;99.90;;;;;;4934839;29;20209;-67
2020/12/19 15:58:02;;;;;;;13.55;11.80;;;7.10;99.90;;;;;;4934860;29;20202;-67
2020/12/19 16:00:28;;;;;;;11.00;9.90;;;7.10;99.90;;;;;;4941425;28;20706;-68
2020/12/19 16:02:55;;;;;;;13.25;9.55;;;7.10;99.90;;;;;;4933773;29;20210;-68
2020/12/19 16:05:21;;;;;;;13.20;10.77;;;7.10;99.90;;;;;;4933138;28;20213;-67
2020/12/19 16:07:47;;;;;;;12.27;10.65;;;7.00;99.90;;;;;;4934502;29;20230;-67
2020/12/19 16:10:13;;;;;;;12.95;11.32;;;7.00;99.90;;;;;;4933902;29;20221;-66
2020/12/19 16:12:40;;;;;;;13.15;11.68;;;7.00;99.90;;;;;;4934386;29;20213;-67
2020/12/19 16:15:06;;;;;;;13.13;10.98;;;7.00;99.90;;;;;;4934775;29;20210;-66
2020/12/19 16:17:33;;;;;;;15.68;11.07;;;7.00;99.90;;;;;;4934007;29;20202;-66
2020/12/19 16:19:59;;;;;;;12.32;11.05;;;6.90;99.90;;;;;;4933337;28;20213;-67
2020/12/19 16:22:25;;;;;;;13.13;11.35;;;6.90;99.90;;;;;;4935384;29;20284;-67
2020/12/19 16:24:51;;;;;;;12.45;11.18;;;6.90;99.90;;;;;;4934890;29;20586;-68
2020/12/19 16:27:17;;;;;;;12.35;10.38;;;6.80;99.90;;;;;;4934832;29;20331;-66
2020/12/19 16:29:44;;;;;;;11.15;10.00;;;6.80;99.90;;;;;;4933873;29;20212;-66
2020/12/19 16:32:11;;;;;;;10.30;9.30;;;6.80;99.90;;;;;;4946882;28;20233;-66
2020/12/19 16:34:37;;;;;;;11.15;9.82;;;6.80;99.90;;;;;;4931846;29;20214;-66
2020/12/19 16:37:04;;;;;;;11.13;10.02;;;6.80;99.90;;;;;;4934335;29;20371;-67
2020/12/19 16:39:31;;;;;;;11.93;10.70;;;6.80;99.90;;;;;;4933831;29;20202;-67
2020/12/19 16:41:57;;;;;;;24.00;17.05;;;6.90;99.90;;;;;;4934410;28;20232;-67
2020/12/19 16:44:23;;;;;;;15.52;12.70;;;6.90;99.90;;;;;;4934053;29;20702;-67
2020/12/19 16:46:50;;;;;;;12.95;11.65;;;6.90;99.90;;;;;;4933960;29;20236;-66
2020/12/19 16:49:16;;;;;;;15.45;12.32;;;6.90;99.90;;;;;;4932027;29;20214;-66
2020/12/19 16:51:44;;;;;;;25.92;17.75;;;6.80;99.90;;;;;;4934173;29;20541;-67
2020/12/19 16:54:12;;;;;;;18.42;15.02;;;6.80;99.90;;;;;;4953935;29;20209;-66
2020/12/19 16:56:38;;;;;;;24.45;17.27;;;6.70;99.90;;;;;;4941552;28;20218;-66
2020/12/19 16:59:04;;;;;;;13.02;11.40;;;6.70;99.90;;;;;;4948964;29;20277;-66
2020/12/19 17:01:38;;;;;;;20.23;16.60;;;6.60;99.90;;;;;;4937114;29;20234;-66
2020/12/19 17:04:06;;;;;;;12.77;11.40;;;6.60;99.90;;;;;;4950656;29;20205;-66
2020/12/19 17:06:33;;;;;;;15.27;12.25;;;6.70;99.90;;;;;;4929808;29;20674;-66
2020/12/19 17:08:59;;;;;;;14.45;10.30;;;6.70;99.90;;;;;;4943999;28;20206;-66
2020/12/19 17:11:26;;;;;;;13.85;11.32;;;6.70;99.90;;;;;;4933940;29;20229;-66
2020/12/19 17:13:53;;;;;;;14.85;12.90;;;6.70;99.90;;;;;;4935302;29;20209;-66
2020/12/19 17:16:21;;;;;;;15.13;11.90;;;6.70;99.90;;;;;;4933335;29;20284;-66
2020/12/19 17:18:48;;;;;;;12.27;10.98;;;6.60;99.90;;;;;;4918305;29;20581;-66
2020/12/19 17:21:22;;;;;;;17.63;12.00;;;6.60;99.90;;;;;;4941041;29;20230;-66
2020/12/19 17:23:48;;;;;;;14.18;11.65;;;6.60;99.90;;;;;;4948843;29;20575;-67
2020/12/19 17:26:15;;;;;;;12.98;11.68;;;6.60;99.90;;;;;;4943046;28;20210;-68
2020/12/19 17:28:41;;;;;;;17.83;15.98;;;6.60;99.90;;;;;;4934348;29;20285;-68
2020/12/19 17:31:07;;;;;;;13.45;11.77;;;6.50;99.90;;;;;;4932901;29;20236;-67
2020/12/19 17:33:33;;;;;;;18.40;15.93;;;6.50;99.90;;;;;;4929710;28;20240;-68
2020/12/19 17:35:59;;;;;;;36.72;26.15;;;6.50;99.90;;;;;;4920516;29;20206;-68
2020/12/19 17:38:26;;;;;;;43.05;28.67;;;6.50;99.90;;;;;;4925030;29;20207;-67